createdAt,value
2018-07-20T00:01:55.093Z,7.60
2018-07-20T00:04:31.092Z,7.73
2018-07-20T00:06:59.546Z,7.63
2018-07-20T00:09:30.584Z,7.70
2018-07-20T00:11:58.701Z,7.03
2018-07-20T00:14:31.736Z,7.67
2018-07-20T00:17:00.157Z,7.50
2018-07-20T00:19:28.695Z,7.03
2018-07-20T00:22:02.361Z,7.80
2018-07-20T00:27:04.188Z,7.63
2018-07-20T00:29:32.349Z,6.73
2018-07-20T00:32:00.825Z,7.63
2018-07-20T00:34:29.121Z,7.13
2018-07-20T00:36:57.234Z,7.17
2018-07-20T00:39:26.209Z,7.27
2018-07-20T00:41:54.345Z,6.13
2018-07-20T00:44:22.545Z,6.87
2018-07-20T00:46:50.923Z,7.03
2018-07-20T00:49:19.047Z,7.13
2018-07-20T00:51:51.236Z,6.93
2018-07-20T00:54:19.673Z,8.10
2018-07-20T00:59:29.724Z,6.87
2018-07-20T01:01:57.833Z,7.00
2018-07-20T01:04:25.954Z,6.77
2018-07-20T01:06:58.465Z,6.73
2018-07-20T01:09:26.606Z,6.00
2018-07-20T01:11:54.727Z,6.10
2018-07-20T01:14:23.246Z,6.47
2018-07-20T01:16:51.590Z,5.63
2018-07-20T01:19:19.961Z,5.97
2018-07-20T01:21:48.475Z,6.27
2018-07-20T01:24:16.594Z,6.00
2018-07-20T01:26:44.804Z,5.80
2018-07-20T01:29:13.233Z,6.77
2018-07-20T01:31:41.535Z,5.70
2018-07-20T01:34:16.616Z,6.27
2018-07-20T01:36:44.995Z,6.20
2018-07-20T01:39:25.801Z,6.90
2018-07-20T01:41:54.482Z,6.77
2018-07-20T01:44:23.091Z,5.83
2018-07-20T01:46:51.542Z,6.37
2018-07-20T01:49:23.597Z,5.87
2018-07-20T01:51:51.737Z,6.40
2018-07-20T01:54:24.067Z,6.50
2018-07-20T01:56:52.309Z,6.00
2018-07-20T01:59:25.321Z,6.57
2018-07-20T02:01:53.722Z,6.77
2018-07-20T02:06:55.338Z,7.00
2018-07-20T02:09:23.638Z,7.43
2018-07-20T02:11:51.749Z,7.70
2018-07-20T02:14:20.201Z,7.27
2018-07-20T02:16:48.313Z,7.40
2018-07-20T02:19:16.432Z,7.27
2018-07-20T02:21:44.817Z,7.77
2018-07-20T02:24:12.948Z,6.73
2018-07-20T02:26:41.464Z,8.07
2018-07-20T02:29:09.880Z,7.83
2018-07-20T02:31:41.838Z,7.60
2018-07-20T02:34:10.163Z,7.43
2018-07-20T02:36:43.884Z,7.83
2018-07-20T02:39:13.977Z,7.83
2018-07-20T02:41:54.649Z,6.83
2018-07-20T02:44:23.277Z,7.13
2018-07-20T02:46:51.390Z,7.67
2018-07-20T02:49:19.502Z,7.57
2018-07-20T02:51:51.615Z,7.43
2018-07-20T02:54:19.955Z,7.17
2018-07-20T02:56:53.344Z,7.10
2018-07-20T02:59:21.746Z,7.57
2018-07-20T03:01:49.935Z,6.70
2018-07-20T03:04:18.124Z,6.90
2018-07-20T03:06:46.500Z,7.00
2018-07-20T03:09:14.807Z,7.30
2018-07-20T03:11:44.085Z,7.53
2018-07-20T03:14:12.462Z,6.83
2018-07-20T03:16:40.582Z,7.73
2018-07-20T03:19:08.981Z,7.57
2018-07-20T03:21:37.557Z,7.00
2018-07-20T03:24:11.157Z,7.00
2018-07-20T03:26:39.368Z,7.10
2018-07-20T03:29:12.396Z,7.90
2018-07-20T03:31:40.536Z,7.07
2018-07-20T03:34:13.230Z,7.23
2018-07-20T03:36:41.963Z,6.50
2018-07-20T03:41:45.208Z,7.37
2018-07-20T03:44:17.831Z,7.80
2018-07-20T03:46:45.987Z,7.57
2018-07-20T03:49:21.970Z,8.57
2018-07-20T03:51:50.094Z,8.30
2018-07-20T03:54:18.469Z,8.73
2018-07-20T03:56:46.574Z,8.70
2018-07-20T03:59:14.728Z,8.87
2018-07-20T04:01:43.881Z,8.57
2018-07-20T04:04:12.031Z,7.57
2018-07-20T04:06:41.137Z,7.67
2018-07-20T04:09:10.369Z,8.30
2018-07-20T04:11:38.659Z,7.80
2018-07-20T04:14:06.781Z,7.27
2018-07-20T04:16:36.443Z,7.57
2018-07-20T04:19:04.650Z,7.90
2018-07-20T04:21:37.769Z,8.27
2018-07-20T04:24:06.142Z,8.30
2018-07-20T04:26:38.625Z,9.40
2018-07-20T04:29:06.770Z,8.30
2018-07-20T04:31:35.152Z,8.73
2018-07-20T04:34:03.838Z,8.63
2018-07-20T04:36:32.063Z,9.23
2018-07-20T04:39:00.525Z,8.97
2018-07-20T04:41:29.305Z,8.20
2018-07-20T04:43:57.620Z,8.93
2018-07-20T04:46:26.875Z,9.03
2018-07-20T04:48:55.051Z,9.03
2018-07-20T04:51:23.194Z,9.03
2018-07-20T04:53:56.000Z,9.93
2018-07-20T04:56:24.341Z,9.27
2018-07-20T05:01:25.431Z,9.17
2018-07-20T05:03:53.798Z,9.77
2018-07-20T05:06:22.769Z,9.73
2018-07-20T05:08:52.543Z,9.80
2018-07-20T05:11:20.925Z,10.47
2018-07-20T05:13:49.137Z,10.23
2018-07-20T05:16:17.534Z,9.33
2018-07-20T05:18:45.665Z,10.03
2018-07-20T05:21:13.783Z,10.37
2018-07-20T05:23:43.381Z,10.07
2018-07-20T05:26:14.960Z,9.70
2018-07-20T05:28:43.089Z,10.60
2018-07-20T05:31:17.530Z,11.00
2018-07-20T05:33:46.026Z,10.10
2018-07-20T05:36:21.801Z,11.13
2018-07-20T05:38:50.005Z,10.87
2018-07-20T05:41:31.777Z,10.03
2018-07-20T05:44:00.184Z,17.73
2018-07-20T05:46:28.608Z,10.40
2018-07-20T05:48:56.741Z,10.83
2018-07-20T05:51:27.398Z,9.63
2018-07-20T05:53:55.620Z,10.20
2018-07-20T05:56:27.749Z,10.20
2018-07-20T05:58:56.191Z,9.57
2018-07-20T06:01:31.671Z,10.50
2018-07-20T06:04:01.717Z,12.67
2018-07-20T06:06:33.209Z,10.27
2018-07-20T06:09:01.519Z,11.50
2018-07-20T06:11:34.916Z,10.33
2018-07-20T06:14:03.117Z,10.63
2018-07-20T06:16:31.226Z,10.63
2018-07-20T06:18:59.693Z,11.30
2018-07-20T06:21:27.957Z,11.57
2018-07-20T06:23:56.243Z,11.48
2018-07-20T06:26:24.377Z,12.20
2018-07-20T06:28:52.499Z,10.00
2018-07-20T06:31:20.961Z,11.53
2018-07-20T06:33:49.657Z,11.03
2018-07-20T06:36:17.815Z,10.93
2018-07-20T06:38:58.622Z,10.20
2018-07-20T06:41:27.214Z,10.78
2018-07-20T06:43:55.398Z,10.85
2018-07-20T06:46:23.528Z,10.82
2018-07-20T06:49:05.146Z,11.93
2018-07-20T06:51:33.320Z,11.22
2018-07-20T06:54:02.439Z,10.23
2018-07-20T06:56:31.555Z,11.28
2018-07-20T06:59:00.958Z,10.20
2018-07-20T07:01:29.927Z,10.30
2018-07-20T07:04:04.423Z,10.75
2018-07-20T07:06:32.538Z,12.05
2018-07-20T07:09:06.717Z,13.15
2018-07-20T07:11:35.541Z,11.10
2018-07-20T07:14:08.802Z,11.08
2018-07-20T07:16:37.321Z,11.08
2018-07-20T07:19:05.773Z,11.95
2018-07-20T07:21:33.947Z,11.83
2018-07-20T07:24:02.140Z,12.18
2018-07-20T07:26:31.573Z,11.88
2018-07-20T07:29:00.151Z,11.57
2018-07-20T07:31:28.751Z,11.08
2018-07-20T07:33:58.506Z,11.22
2018-07-20T07:36:29.260Z,12.37
2018-07-20T07:38:57.633Z,11.85
2018-07-20T07:41:28.201Z,11.93
2018-07-20T07:43:59.157Z,11.65
2018-07-20T07:46:28.448Z,10.82
2018-07-20T07:48:57.283Z,12.23
2018-07-20T07:51:38.023Z,12.03
2018-07-20T07:54:06.567Z,11.95
2018-07-20T07:59:11.614Z,11.28
2018-07-20T08:01:40.625Z,9.93
2018-07-20T08:04:08.837Z,12.28
2018-07-20T08:06:37.582Z,11.28
2018-07-20T08:09:08.649Z,11.22
2018-07-20T08:11:40.501Z,11.83
2018-07-20T08:14:10.168Z,12.65
2018-07-20T08:16:50.846Z,12.90
2018-07-20T08:19:19.466Z,11.55
2018-07-20T08:21:48.643Z,11.73
2018-07-20T08:24:17.118Z,12.85
2018-07-20T08:26:48.697Z,11.57
2018-07-20T08:29:18.083Z,11.38
2018-07-20T08:31:50.436Z,11.97
2018-07-20T08:34:18.837Z,10.78
2018-07-20T08:36:51.783Z,10.45
2018-07-20T08:39:20.150Z,10.18
2018-07-20T08:41:53.149Z,10.72
2018-07-20T08:44:21.349Z,9.43
2018-07-20T08:46:49.478Z,8.93
2018-07-20T08:49:18.461Z,8.40
2018-07-20T08:51:47.340Z,7.78
2018-07-20T08:54:18.247Z,7.70
2018-07-20T08:56:46.863Z,7.12
2018-07-20T08:59:15.326Z,7.70
2018-07-20T09:01:45.402Z,7.65
2018-07-20T09:04:15.461Z,7.40
2018-07-20T09:06:44.002Z,7.28
2018-07-20T09:09:12.182Z,7.50
2018-07-20T09:11:40.744Z,7.97
2018-07-20T09:14:17.855Z,7.42
2018-07-20T09:16:46.073Z,8.18
2018-07-20T09:19:17.331Z,8.35
2018-07-20T09:21:45.542Z,8.60
2018-07-20T09:24:27.803Z,9.20
2018-07-20T09:26:56.418Z,7.97
2018-07-20T09:29:25.957Z,7.92
2018-07-20T09:31:54.627Z,7.83
2018-07-20T09:34:24.237Z,9.00
2018-07-20T09:36:52.773Z,8.90
2018-07-20T09:39:25.649Z,9.18
2018-07-20T09:41:55.592Z,9.65
2018-07-20T09:44:28.243Z,9.00
2018-07-20T09:46:56.335Z,8.48
2018-07-20T09:49:28.682Z,9.33
2018-07-20T09:52:02.372Z,8.70
2018-07-20T09:54:32.322Z,10.20
2018-07-20T09:57:01.466Z,8.90
2018-07-20T09:59:35.231Z,9.10
2018-07-20T10:02:04.263Z,9.23
2018-07-20T10:04:38.291Z,10.28
2018-07-20T10:07:06.555Z,8.50
2018-07-20T10:09:39.569Z,10.18
2018-07-20T10:12:10.954Z,10.45
2018-07-20T10:14:42.689Z,9.48
2018-07-20T10:17:12.265Z,10.95
2018-07-20T10:19:45.163Z,9.95
2018-07-20T10:22:13.528Z,10.13
2018-07-20T10:24:47.541Z,9.70
2018-07-20T10:27:17.147Z,10.55
2018-07-20T10:29:51.630Z,10.45
2018-07-20T10:32:20.839Z,10.88
2018-07-20T10:34:56.706Z,10.23
2018-07-20T10:37:26.825Z,10.78
2018-07-20T10:39:56.753Z,10.05
2018-07-20T10:42:25.142Z,9.38
2018-07-20T10:44:58.224Z,10.98
2018-07-20T10:47:26.888Z,10.40
2018-07-20T10:50:00.417Z,11.18
2018-07-20T10:52:28.922Z,10.48
2018-07-20T10:54:57.597Z,10.90
2018-07-20T10:57:27.564Z,10.25
2018-07-20T10:59:56.392Z,8.63
2018-07-20T11:02:25.268Z,9.13
2018-07-20T11:04:53.670Z,9.48
2018-07-20T11:07:22.978Z,8.60
2018-07-20T11:09:51.641Z,9.73
2018-07-20T11:12:25.752Z,8.45
2018-07-20T11:14:55.058Z,9.25
2018-07-20T11:17:28.086Z,9.13
2018-07-20T11:19:57.005Z,8.18
2018-07-20T11:22:30.112Z,9.03
2018-07-20T11:24:59.658Z,8.78
2018-07-20T11:27:30.184Z,9.48
2018-07-20T11:29:59.710Z,8.88
2018-07-20T11:32:29.188Z,8.55
2018-07-20T11:34:58.165Z,9.00
2018-07-20T11:37:31.141Z,10.45
2018-07-20T11:40:00.348Z,11.33
2018-07-20T11:42:29.076Z,9.75
2018-07-20T11:44:58.166Z,9.25
2018-07-20T11:47:39.093Z,8.28
2018-07-20T11:50:07.403Z,9.53
2018-07-20T11:52:36.342Z,9.08
2018-07-20T11:55:04.957Z,10.55
2018-07-20T11:57:36.587Z,10.10
2018-07-20T12:00:05.332Z,9.88
2018-07-20T12:02:38.432Z,10.55
2018-07-20T12:05:06.749Z,9.68
2018-07-20T12:07:39.141Z,10.45
2018-07-20T12:10:07.534Z,9.65
2018-07-20T12:12:42.646Z,8.85
2018-07-20T12:15:10.787Z,10.55
2018-07-20T12:20:11.931Z,9.85
2018-07-20T12:22:40.533Z,9.08
2018-07-20T12:25:09.669Z,9.80
2018-07-20T12:27:38.741Z,7.62
2018-07-20T12:30:06.913Z,8.48
2018-07-20T12:32:35.545Z,9.33
2018-07-20T12:35:05.198Z,8.05
2018-07-20T12:37:33.342Z,9.35
2018-07-20T12:40:01.934Z,8.85
2018-07-20T12:42:30.109Z,7.65
2018-07-20T12:45:02.091Z,9.10
2018-07-20T12:47:30.693Z,9.48
2018-07-20T12:50:02.708Z,9.10
2018-07-20T12:52:32.149Z,7.75
2018-07-20T12:55:07.715Z,8.45
2018-07-20T12:57:35.867Z,8.50
2018-07-20T13:00:10.213Z,7.90
2018-07-20T13:02:41.157Z,7.78
2018-07-20T13:05:15.683Z,7.75
2018-07-20T13:07:44.154Z,7.55
2018-07-20T13:10:17.136Z,7.78
2018-07-20T13:17:20.305Z,8.18
2018-07-20T13:19:48.529Z,7.30
2018-07-20T13:22:20.366Z,6.75
2018-07-20T13:24:49.266Z,7.50
2018-07-20T13:27:30.338Z,7.20
2018-07-20T13:29:58.525Z,6.28
2018-07-20T13:32:28.473Z,6.65
2018-07-20T13:34:56.878Z,5.95
2018-07-20T13:37:30.441Z,6.20
2018-07-20T13:40:00.344Z,6.08
2018-07-20T13:42:29.631Z,6.30
2018-07-20T13:44:59.812Z,6.22
2018-07-20T13:47:31.393Z,7.20
2018-07-20T13:49:59.990Z,7.10
2018-07-20T13:52:35.152Z,7.37
2018-07-20T13:55:04.341Z,5.85
2018-07-20T13:57:38.469Z,6.20
2018-07-20T14:00:07.046Z,6.83
2018-07-20T14:02:40.543Z,6.12
2018-07-20T14:05:09.649Z,6.85
2018-07-20T14:07:42.639Z,14.15
2018-07-20T14:10:23.251Z,7.17
2018-07-20T14:12:54.266Z,7.97
2018-07-20T14:15:22.546Z,7.62
2018-07-20T14:17:50.970Z,7.33
2018-07-20T14:20:22.489Z,7.10
2018-07-20T14:22:51.120Z,7.50
2018-07-20T14:25:20.756Z,7.65
2018-07-20T14:32:20.525Z,5.92
2018-07-20T14:34:57.341Z,5.62
2018-07-20T14:37:25.866Z,5.15
2018-07-20T14:39:58.213Z,5.42
2018-07-20T14:42:27.437Z,5.67
2018-07-20T14:45:10.677Z,6.03
2018-07-20T14:47:39.530Z,6.92
2018-07-20T14:50:07.947Z,6.83
2018-07-20T14:52:36.549Z,6.60
2018-07-20T14:55:07.289Z,7.00
2018-07-20T14:57:35.446Z,7.15
2018-07-20T15:00:09.006Z,5.33
2018-07-20T15:02:37.975Z,6.00
2018-07-20T15:05:18.518Z,5.78
2018-07-20T15:07:47.352Z,5.50
2018-07-20T15:10:15.483Z,4.97
2018-07-20T15:12:44.084Z,5.00
2018-07-20T15:15:25.430Z,5.45
2018-07-20T15:17:54.578Z,5.20
2018-07-20T15:20:23.600Z,5.20
2018-07-20T15:22:52.051Z,4.85
2018-07-20T15:25:24.274Z,5.37
2018-07-20T15:27:52.979Z,5.35
2018-07-20T15:30:26.493Z,5.15
2018-07-20T15:32:54.805Z,5.00
2018-07-20T15:35:27.399Z,4.80
2018-07-20T15:37:55.635Z,4.22
2018-07-20T15:40:28.622Z,4.75
2018-07-20T15:42:57.325Z,5.70
2018-07-20T15:45:30.063Z,4.83
2018-07-20T15:47:58.185Z,4.50
2018-07-20T15:50:30.753Z,4.87
2018-07-20T15:53:59.012Z,4.70
2018-07-20T15:58:07.926Z,4.30
2018-07-20T16:00:39.542Z,4.40
2018-07-20T16:03:07.685Z,4.10
2018-07-20T16:05:40.604Z,4.83
2018-07-20T16:08:09.009Z,4.60
2018-07-20T16:10:43.836Z,4.30
2018-07-20T16:13:13.391Z,4.37
2018-07-20T16:15:45.335Z,4.22
2018-07-20T16:18:15.385Z,4.37
2018-07-20T16:20:49.265Z,4.50
2018-07-20T16:23:17.736Z,4.28
2018-07-20T16:25:55.397Z,4.35
2018-07-20T16:28:24.755Z,4.50
2018-07-20T16:30:53.669Z,5.65
2018-07-20T16:33:21.869Z,6.92
2018-07-20T16:35:54.851Z,6.00
2018-07-20T16:38:23.654Z,6.05
2018-07-20T16:40:51.984Z,6.70
2018-07-20T16:43:21.541Z,6.93
2018-07-20T16:45:49.761Z,7.07
2018-07-20T16:48:18.769Z,7.30
2018-07-20T16:50:47.426Z,6.83
2018-07-20T16:53:17.341Z,5.87
2018-07-20T16:55:45.624Z,6.60
2018-07-20T16:58:14.167Z,6.53
2018-07-20T17:00:44.501Z,6.53
2018-07-20T17:03:18.061Z,7.40
2018-07-20T17:05:47.227Z,7.87
2018-07-20T17:08:16.139Z,8.07
2018-07-20T17:10:44.646Z,8.67
2018-07-20T17:13:18.429Z,9.40
2018-07-20T17:15:46.889Z,9.83
2018-07-20T17:18:27.559Z,9.03
2018-07-20T17:20:56.833Z,8.93
2018-07-20T17:23:26.204Z,9.43
2018-07-20T17:25:54.328Z,9.10
2018-07-20T17:28:25.391Z,9.63
2018-07-20T17:30:55.053Z,9.07
2018-07-20T17:33:29.588Z,8.63
2018-07-20T17:35:59.443Z,8.90
2018-07-20T17:38:29.789Z,8.00
2018-07-20T17:40:57.979Z,8.53
2018-07-20T17:43:31.426Z,7.63
2018-07-20T17:46:00.658Z,8.60
2018-07-20T17:48:38.929Z,8.00
2018-07-20T17:51:10.587Z,7.57
2018-07-20T17:53:38.727Z,8.63
2018-07-20T17:56:07.094Z,8.20
2018-07-20T17:58:38.263Z,9.07
2018-07-20T18:01:06.626Z,8.93
2018-07-20T18:03:39.645Z,8.27
2018-07-20T18:06:09.749Z,7.53
2018-07-20T18:08:43.048Z,8.20
2018-07-20T18:11:11.231Z,7.63
2018-07-20T18:16:17.390Z,8.03
2018-07-20T18:18:49.269Z,8.57
2018-07-20T18:21:18.551Z,7.67
2018-07-20T18:23:52.033Z,8.53
2018-07-20T18:26:20.299Z,8.63
2018-07-20T18:28:53.378Z,9.40
2018-07-20T18:31:22.455Z,8.43
2018-07-20T18:33:56.815Z,9.03
2018-07-20T18:36:25.189Z,8.10
2018-07-20T18:38:58.559Z,9.17
2018-07-20T18:41:31.664Z,8.43
2018-07-20T18:44:03.988Z,8.00
2018-07-20T18:46:32.169Z,8.80
2018-07-20T18:49:07.446Z,8.77
2018-07-20T18:51:35.830Z,8.50
2018-07-20T18:54:16.587Z,9.17
2018-07-20T18:56:45.081Z,8.13
2018-07-20T18:59:14.610Z,8.70
2018-07-20T19:01:42.740Z,8.13
2018-07-20T19:04:14.889Z,9.90
2018-07-20T19:06:43.345Z,8.50
2018-07-20T19:09:17.810Z,9.40
2018-07-20T19:11:46.167Z,8.40
2018-07-20T19:14:19.354Z,8.37
2018-07-20T19:16:47.482Z,9.43
2018-07-20T19:19:20.401Z,9.30
2018-07-20T19:21:52.328Z,9.47
2018-07-20T19:24:23.622Z,10.07
2018-07-20T19:26:52.983Z,9.97
2018-07-20T19:29:27.575Z,9.67
2018-07-20T19:31:56.074Z,9.57
2018-07-20T19:34:37.590Z,10.63
2018-07-20T19:37:06.100Z,9.53
2018-07-20T19:39:34.538Z,10.47
2018-07-20T19:42:03.161Z,10.20
2018-07-20T19:44:35.945Z,9.87
2018-07-20T19:47:05.607Z,9.83
2018-07-20T19:49:49.091Z,9.97
2018-07-20T19:52:19.139Z,8.90
2018-07-20T19:54:50.409Z,10.43
2018-07-20T19:57:19.449Z,9.53
2018-07-20T19:59:49.105Z,9.67
2018-07-20T20:02:18.466Z,9.67
2018-07-20T20:04:49.572Z,10.30
2018-07-20T20:07:20.838Z,9.83
2018-07-20T20:09:56.186Z,10.27
2018-07-20T20:12:26.690Z,10.07
2018-07-20T20:14:55.816Z,9.33
2018-07-20T20:17:25.555Z,9.70
2018-07-20T20:19:59.696Z,9.77
2018-07-20T20:22:28.371Z,9.10
2018-07-20T20:25:10.173Z,9.13
2018-07-20T20:28:04.779Z,9.23
2018-07-20T20:30:34.225Z,9.43
2018-07-20T20:33:10.566Z,9.33
2018-07-20T20:35:38.775Z,8.27
2018-07-20T20:38:12.922Z,7.70
2018-07-20T20:40:41.789Z,7.47
2018-07-20T20:43:14.456Z,7.57
2018-07-20T20:45:45.430Z,8.03
2018-07-20T20:48:18.666Z,6.03
2018-07-20T20:50:48.152Z,6.07
2018-07-20T20:53:19.552Z,7.03
2018-07-20T20:55:50.056Z,7.43
2018-07-20T20:58:21.637Z,6.43
2018-07-20T21:00:51.153Z,6.23
2018-07-20T21:03:24.580Z,6.57
2018-07-20T21:05:53.304Z,6.17
2018-07-20T21:08:26.564Z,5.73
2018-07-20T21:10:54.920Z,6.23
2018-07-20T21:13:30.149Z,6.23
2018-07-20T21:15:59.542Z,6.00
2018-07-20T21:18:31.782Z,5.37
2018-07-20T21:21:00.357Z,5.70
2018-07-20T21:23:41.297Z,5.73
2018-07-20T21:26:09.534Z,6.10
2018-07-20T21:28:38.552Z,5.60
2018-07-20T21:31:07.753Z,5.40
2018-07-20T21:33:40.261Z,5.10
2018-07-20T21:36:09.243Z,5.27
2018-07-20T21:38:53.322Z,5.53
2018-07-20T21:41:22.142Z,5.70
2018-07-20T21:43:50.969Z,5.67
2018-07-20T21:46:19.337Z,5.40
2018-07-20T21:48:49.395Z,5.37
2018-07-20T21:51:19.801Z,5.33
2018-07-20T21:53:50.418Z,4.80
2018-07-20T21:56:19.182Z,5.27
2018-07-20T21:58:52.679Z,5.10
2018-07-20T22:01:22.064Z,6.07
2018-07-20T22:04:01.737Z,4.90
2018-07-20T22:06:30.338Z,5.47
2018-07-20T22:08:58.885Z,5.07
2018-07-20T22:11:27.777Z,4.87
2018-07-20T22:14:00.898Z,5.30
2018-07-20T22:16:29.015Z,5.20
2018-07-20T22:19:01.935Z,6.20
2018-07-20T22:21:32.231Z,5.57
2018-07-20T22:24:01.329Z,4.80
2018-07-20T22:26:29.933Z,5.50
2018-07-20T22:29:01.321Z,4.90
2018-07-20T22:31:29.683Z,5.53
2018-07-20T22:33:58.234Z,5.57
2018-07-20T22:36:27.981Z,5.43
2018-07-20T22:38:56.504Z,5.63
2018-07-20T22:41:24.870Z,5.23
2018-07-20T22:43:53.530Z,4.90
2018-07-20T22:46:21.691Z,4.93
2018-07-20T22:48:51.221Z,5.23
2018-07-20T22:51:22.814Z,5.33
2018-07-20T22:53:50.935Z,5.13
2018-07-20T22:56:23.748Z,7.27
2018-07-20T22:58:53.076Z,4.97
2018-07-20T23:01:24.710Z,5.60
2018-07-20T23:03:53.171Z,4.57
2018-07-20T23:06:21.812Z,5.23
2018-07-20T23:08:49.934Z,5.40
2018-07-20T23:11:18.165Z,5.10
2018-07-20T23:13:46.975Z,4.83
2018-07-20T23:16:15.092Z,5.07
2018-07-20T23:18:44.166Z,5.50
2018-07-20T23:21:12.870Z,5.03
2018-07-20T23:23:43.536Z,5.63
2018-07-20T23:26:12.559Z,5.33
2018-07-20T23:28:41.317Z,5.37
2018-07-20T23:31:10.282Z,5.57
2018-07-20T23:33:43.342Z,5.70
2018-07-20T23:36:13.013Z,5.87
2018-07-20T23:38:45.170Z,4.90
2018-07-20T23:41:13.329Z,5.07
2018-07-20T23:43:41.749Z,6.13
2018-07-20T23:46:09.857Z,4.93
2018-07-20T23:48:38.169Z,6.23
2018-07-20T23:51:06.598Z,5.27
2018-07-20T23:53:35.421Z,5.77
2018-07-20T23:56:04.975Z,4.97
2018-07-20T23:58:33.862Z,6.07
